sensor_id;sensor_type;location;lat;lon;timestamp;P1;durP1;ratioP1;P2;durP2;ratioP2
18568;SDS011;14780;48.316;-1.050;2023-01-16T00:00:08;3.30;;;1.58;;
18568;SDS011;14780;48.316;-1.050;2023-01-16T00:02:53;3.78;;;1.50;;
18568;SDS011;14780;48.316;-1.050;2023-01-16T00:05:38;6.70;;;2.25;;
18568;SDS011;14780;48.316;-1.050;2023-01-16T00:08:23;3.10;;;1.70;;
18568;SDS011;14780;48.316;-1.050;2023-01-16T00:11:08;4.50;;;1.50;;
18568;SDS011;14780;48.316;-1.050;2023-01-16T00:13:53;3.45;;;1.50;;
18568;SDS011;14780;48.316;-1.050;2023-01-16T00:16:39;2.50;;;1.52;;
18568;SDS011;14780;48.316;-1.050;2023-01-16T00:19:23;5.32;;;1.70;;
18568;SDS011;14780;48.316;-1.050;2023-01-16T00:22:08;3.22;;;1.60;;
18568;SDS011;14780;48.316;-1.050;2023-01-16T00:24:52;3.35;;;1.42;;
18568;SDS011;14780;48.316;-1.050;2023-01-16T00:27:37;3.45;;;1.80;;
18568;SDS011;14780;48.316;-1.050;2023-01-16T00:30:22;2.20;;;1.33;;
18568;SDS011;14780;48.316;-1.050;2023-01-16T00:33:08;3.75;;;1.83;;
18568;SDS011;14780;48.316;-1.050;2023-01-16T00:35:53;1.98;;;1.27;;
18568;SDS011;14780;48.316;-1.050;2023-01-16T00:38:38;4.00;;;1.50;;
18568;SDS011;14780;48.316;-1.050;2023-01-16T00:41:22;2.33;;;1.40;;
18568;SDS011;14780;48.316;-1.050;2023-01-16T00:44:07;2.47;;;1.50;;
18568;SDS011;14780;48.316;-1.050;2023-01-16T00:46:52;2.33;;;1.40;;
18568;SDS011;14780;48.316;-1.050;2023-01-16T00:49:36;2.20;;;1.27;;
18568;SDS011;14780;48.316;-1.050;2023-01-16T00:52:21;2.28;;;1.42;;
18568;SDS011;14780;48.316;-1.050;2023-01-16T00:55:06;2.13;;;1.23;;
18568;SDS011;14780;48.316;-1.050;2023-01-16T00:57:51;2.28;;;1.30;;
18568;SDS011;14780;48.316;-1.050;2023-01-16T01:00:36;2.72;;;1.63;;
18568;SDS011;14780;48.316;-1.050;2023-01-16T01:03:22;1.17;;;1.00;;
18568;SDS011;14780;48.316;-1.050;2023-01-16T01:06:07;2.88;;;1.17;;
18568;SDS011;14780;48.316;-1.050;2023-01-16T01:08:54;2.70;;;1.25;;
18568;SDS011;14780;48.316;-1.050;2023-01-16T01:11:39;2.17;;;1.10;;
18568;SDS011;14780;48.316;-1.050;2023-01-16T01:14:24;1.73;;;1.20;;
18568;SDS011;14780;48.316;-1.050;2023-01-16T01:17:10;1.90;;;1.00;;
18568;SDS011;14780;48.316;-1.050;2023-01-16T01:19:54;2.72;;;1.45;;
18568;SDS011;14780;48.316;-1.050;2023-01-16T01:22:39;2.40;;;1.23;;
18568;SDS011;14780;48.316;-1.050;2023-01-16T01:25:24;1.38;;;1.10;;
18568;SDS011;14780;48.316;-1.050;2023-01-16T01:28:09;1.10;;;0.90;;
18568;SDS011;14780;48.316;-1.050;2023-01-16T01:30:53;2.28;;;1.40;;
18568;SDS011;14780;48.316;-1.050;2023-01-16T01:33:38;1.13;;;1.00;;
18568;SDS011;14780;48.316;-1.050;2023-01-16T01:36:24;1.40;;;1.13;;
18568;SDS011;14780;48.316;-1.050;2023-01-16T01:39:08;1.95;;;1.25;;
18568;SDS011;14780;48.316;-1.050;2023-01-16T01:41:53;2.47;;;1.30;;
18568;SDS011;14780;48.316;-1.050;2023-01-16T01:45:05;2.80;;;1.40;;
18568;SDS011;14780;48.316;-1.050;2023-01-16T01:48:04;2.42;;;1.55;;
18568;SDS011;14780;48.316;-1.050;2023-01-16T01:51:02;2.25;;;1.05;;
18568;SDS011;14780;48.316;-1.050;2023-01-16T01:53:59;2.50;;;1.30;;
18568;SDS011;14780;48.316;-1.050;2023-01-16T01:56:53;2.03;;;1.00;;
18568;SDS011;14780;48.316;-1.050;2023-01-16T01:59:51;2.97;;;1.40;;
18568;SDS011;14780;48.316;-1.050;2023-01-16T02:02:45;2.08;;;1.25;;
18568;SDS011;14780;48.316;-1.050;2023-01-16T02:05:42;3.70;;;1.60;;
18568;SDS011;14780;48.316;-1.050;2023-01-16T02:08:33;1.92;;;1.10;;
18568;SDS011;14780;48.316;-1.050;2023-01-16T02:11:20;2.78;;;1.60;;
18568;SDS011;14780;48.316;-1.050;2023-01-16T02:14:15;2.72;;;1.10;;
18568;SDS011;14780;48.316;-1.050;2023-01-16T02:17:03;2.15;;;1.30;;
18568;SDS011;14780;48.316;-1.050;2023-01-16T02:24:11;2.83;;;1.35;;
18568;SDS011;14780;48.316;-1.050;2023-01-16T02:39:11;2.72;;;1.30;;
18568;SDS011;14780;48.316;-1.050;2023-01-16T02:45:12;2.95;;;1.52;;
18568;SDS011;14780;48.316;-1.050;2023-01-16T02:48:16;2.55;;;1.50;;
18568;SDS011;14780;48.316;-1.050;2023-01-16T02:51:34;3.42;;;1.67;;
18568;SDS011;14780;48.316;-1.050;2023-01-16T02:54:27;3.63;;;1.73;;
18568;SDS011;14780;48.316;-1.050;2023-01-16T02:57:25;2.58;;;1.30;;
18568;SDS011;14780;48.316;-1.050;2023-01-16T03:00:16;2.58;;;1.58;;
18568;SDS011;14780;48.316;-1.050;2023-01-16T03:03:03;4.65;;;1.80;;
18568;SDS011;14780;48.316;-1.050;2023-01-16T03:05:47;3.20;;;1.50;;
18568;SDS011;14780;48.316;-1.050;2023-01-16T03:08:40;6.45;;;2.08;;
18568;SDS011;14780;48.316;-1.050;2023-01-16T03:11:42;4.22;;;1.65;;
18568;SDS011;14780;48.316;-1.050;2023-01-16T03:26:29;6.40;;;2.05;;
18568;SDS011;14780;48.316;-1.050;2023-01-16T03:29:44;3.83;;;1.75;;
18568;SDS011;14780;48.316;-1.050;2023-01-16T03:32:56;5.10;;;1.92;;
18568;SDS011;14780;48.316;-1.050;2023-01-16T03:35:50;2.72;;;1.52;;
18568;SDS011;14780;48.316;-1.050;2023-01-16T03:38:39;5.00;;;1.73;;
18568;SDS011;14780;48.316;-1.050;2023-01-16T03:41:28;3.60;;;1.70;;
18568;SDS011;14780;48.316;-1.050;2023-01-16T03:44:17;3.05;;;1.45;;
18568;SDS011;14780;48.316;-1.050;2023-01-16T03:47:14;2.50;;;1.73;;
18568;SDS011;14780;48.316;-1.050;2023-01-16T03:50:05;1.97;;;1.33;;
18568;SDS011;14780;48.316;-1.050;2023-01-16T03:52:54;3.45;;;1.48;;
18568;SDS011;14780;48.316;-1.050;2023-01-16T03:55:53;3.47;;;1.40;;
18568;SDS011;14780;48.316;-1.050;2023-01-16T03:58:48;5.03;;;1.90;;
18568;SDS011;14780;48.316;-1.050;2023-01-16T04:04:41;4.22;;;1.70;;
18568;SDS011;14780;48.316;-1.050;2023-01-16T04:07:48;3.28;;;1.70;;
18568;SDS011;14780;48.316;-1.050;2023-01-16T04:10:41;4.20;;;1.90;;
18568;SDS011;14780;48.316;-1.050;2023-01-16T04:13:30;3.30;;;1.60;;
18568;SDS011;14780;48.316;-1.050;2023-01-16T04:16:18;2.53;;;1.35;;
18568;SDS011;14780;48.316;-1.050;2023-01-16T04:19:05;3.85;;;1.60;;
18568;SDS011;14780;48.316;-1.050;2023-01-16T04:21:52;3.28;;;1.75;;
18568;SDS011;14780;48.316;-1.050;2023-01-16T04:24:37;2.38;;;1.48;;
18568;SDS011;14780;48.316;-1.050;2023-01-16T04:27:22;2.92;;;1.67;;
18568;SDS011;14780;48.316;-1.050;2023-01-16T04:30:08;4.00;;;1.83;;
18568;SDS011;14780;48.316;-1.050;2023-01-16T04:32:53;3.47;;;1.63;;
18568;SDS011;14780;48.316;-1.050;2023-01-16T04:35:38;2.78;;;1.42;;
18568;SDS011;14780;48.316;-1.050;2023-01-16T04:38:22;2.67;;;1.30;;
18568;SDS011;14780;48.316;-1.050;2023-01-16T04:41:07;3.50;;;1.80;;
18568;SDS011;14780;48.316;-1.050;2023-01-16T04:43:51;3.92;;;1.63;;
18568;SDS011;14780;48.316;-1.050;2023-01-16T04:46:38;2.15;;;1.42;;
18568;SDS011;14780;48.316;-1.050;2023-01-16T04:49:23;2.78;;;1.50;;
18568;SDS011;14780;48.316;-1.050;2023-01-16T04:52:08;1.70;;;1.02;;
18568;SDS011;14780;48.316;-1.050;2023-01-16T04:54:55;3.20;;;1.60;;
18568;SDS011;14780;48.316;-1.050;2023-01-16T04:57:39;4.05;;;1.65;;
18568;SDS011;14780;48.316;-1.050;2023-01-16T05:00:24;3.58;;;1.50;;
18568;SDS011;14780;48.316;-1.050;2023-01-16T05:03:10;3.65;;;1.40;;
18568;SDS011;14780;48.316;-1.050;2023-01-16T05:05:54;3.30;;;1.73;;
18568;SDS011;14780;48.316;-1.050;2023-01-16T05:08:39;3.97;;;1.63;;
18568;SDS011;14780;48.316;-1.050;2023-01-16T05:11:24;4.18;;;1.40;;
18568;SDS011;14780;48.316;-1.050;2023-01-16T05:14:09;2.45;;;1.25;;
18568;SDS011;14780;48.316;-1.050;2023-01-16T05:16:54;1.77;;;1.08;;
18568;SDS011;14780;48.316;-1.050;2023-01-16T05:19:39;2.17;;;1.30;;
18568;SDS011;14780;48.316;-1.050;2023-01-16T05:22:23;2.30;;;1.10;;
18568;SDS011;14780;48.316;-1.050;2023-01-16T05:25:08;2.20;;;1.40;;
18568;SDS011;14780;48.316;-1.050;2023-01-16T05:27:52;2.85;;;1.60;;
18568;SDS011;14780;48.316;-1.050;2023-01-16T05:30:37;3.45;;;1.63;;
18568;SDS011;14780;48.316;-1.050;2023-01-16T05:33:22;3.65;;;1.55;;
18568;SDS011;14780;48.316;-1.050;2023-01-16T05:36:07;4.10;;;1.30;;
18568;SDS011;14780;48.316;-1.050;2023-01-16T05:38:52;3.13;;;1.60;;
18568;SDS011;14780;48.316;-1.050;2023-01-16T05:41:37;3.75;;;1.40;;
18568;SDS011;14780;48.316;-1.050;2023-01-16T05:44:22;2.70;;;1.35;;
18568;SDS011;14780;48.316;-1.050;2023-01-16T05:47:07;4.13;;;1.55;;
18568;SDS011;14780;48.316;-1.050;2023-01-16T05:49:51;1.70;;;0.98;;
18568;SDS011;14780;48.316;-1.050;2023-01-16T05:52:36;3.38;;;1.48;;
18568;SDS011;14780;48.316;-1.050;2023-01-16T05:55:20;4.07;;;1.73;;
18568;SDS011;14780;48.316;-1.050;2023-01-16T05:58:05;2.28;;;1.23;;
18568;SDS011;14780;48.316;-1.050;2023-01-16T06:00:50;3.05;;;1.70;;
18568;SDS011;14780;48.316;-1.050;2023-01-16T06:03:34;3.30;;;1.63;;
18568;SDS011;14780;48.316;-1.050;2023-01-16T06:06:19;2.97;;;1.45;;
18568;SDS011;14780;48.316;-1.050;2023-01-16T06:09:03;3.38;;;2.00;;
18568;SDS011;14780;48.316;-1.050;2023-01-16T06:11:48;3.33;;;1.65;;
18568;SDS011;14780;48.316;-1.050;2023-01-16T06:14:33;3.08;;;1.52;;
18568;SDS011;14780;48.316;-1.050;2023-01-16T06:17:18;3.08;;;1.90;;
18568;SDS011;14780;48.316;-1.050;2023-01-16T06:20:03;4.47;;;1.80;;
18568;SDS011;14780;48.316;-1.050;2023-01-16T06:22:48;3.00;;;1.80;;
18568;SDS011;14780;48.316;-1.050;2023-01-16T06:25:33;4.00;;;1.77;;
18568;SDS011;14780;48.316;-1.050;2023-01-16T06:28:17;3.75;;;1.90;;
18568;SDS011;14780;48.316;-1.050;2023-01-16T06:31:02;3.45;;;2.03;;
18568;SDS011;14780;48.316;-1.050;2023-01-16T06:33:48;3.08;;;1.80;;
18568;SDS011;14780;48.316;-1.050;2023-01-16T06:36:33;2.97;;;1.63;;
18568;SDS011;14780;48.316;-1.050;2023-01-16T06:39:17;3.88;;;1.95;;
18568;SDS011;14780;48.316;-1.050;2023-01-16T06:42:02;4.68;;;2.00;;
18568;SDS011;14780;48.316;-1.050;2023-01-16T06:44:48;4.60;;;1.90;;
18568;SDS011;14780;48.316;-1.050;2023-01-16T06:47:33;4.57;;;2.00;;
18568;SDS011;14780;48.316;-1.050;2023-01-16T06:50:17;4.35;;;2.28;;
18568;SDS011;14780;48.316;-1.050;2023-01-16T06:53:03;5.13;;;2.20;;
18568;SDS011;14780;48.316;-1.050;2023-01-16T06:55:48;4.50;;;2.00;;
18568;SDS011;14780;48.316;-1.050;2023-01-16T06:58:32;2.80;;;1.80;;
18568;SDS011;14780;48.316;-1.050;2023-01-16T07:01:17;6.10;;;1.73;;
18568;SDS011;14780;48.316;-1.050;2023-01-16T07:04:02;4.40;;;1.77;;
18568;SDS011;14780;48.316;-1.050;2023-01-16T07:06:46;5.03;;;1.95;;
18568;SDS011;14780;48.316;-1.050;2023-01-16T07:09:33;6.90;;;3.42;;
18568;SDS011;14780;48.316;-1.050;2023-01-16T07:12:18;11.05;;;6.95;;
18568;SDS011;14780;48.316;-1.050;2023-01-16T07:15:03;10.15;;;7.13;;
18568;SDS011;14780;48.316;-1.050;2023-01-16T07:18:13;11.43;;;6.85;;
18568;SDS011;14780;48.316;-1.050;2023-01-16T07:21:18;9.98;;;6.22;;
18568;SDS011;14780;48.316;-1.050;2023-01-16T07:24:25;12.13;;;6.07;;
18568;SDS011;14780;48.316;-1.050;2023-01-16T07:27:12;9.55;;;4.95;;
18568;SDS011;14780;48.316;-1.050;2023-01-16T07:29:58;7.97;;;4.68;;
18568;SDS011;14780;48.316;-1.050;2023-01-16T07:32:44;10.43;;;4.78;;
18568;SDS011;14780;48.316;-1.050;2023-01-16T07:35:29;8.60;;;4.50;;
18568;SDS011;14780;48.316;-1.050;2023-01-16T07:38:13;7.78;;;4.10;;
18568;SDS011;14780;48.316;-1.050;2023-01-16T07:40:58;6.50;;;4.03;;
18568;SDS011;14780;48.316;-1.050;2023-01-16T07:43:43;7.85;;;4.10;;
18568;SDS011;14780;48.316;-1.050;2023-01-16T07:46:28;7.35;;;3.88;;
18568;SDS011;14780;48.316;-1.050;2023-01-16T07:49:12;7.15;;;3.83;;
18568;SDS011;14780;48.316;-1.050;2023-01-16T07:51:57;7.85;;;3.97;;
18568;SDS011;14780;48.316;-1.050;2023-01-16T07:54:42;7.45;;;4.18;;
18568;SDS011;14780;48.316;-1.050;2023-01-16T07:57:26;8.77;;;4.20;;
18568;SDS011;14780;48.316;-1.050;2023-01-16T08:00:12;8.10;;;3.40;;
18568;SDS011;14780;48.316;-1.050;2023-01-16T08:02:57;8.05;;;3.40;;
18568;SDS011;14780;48.316;-1.050;2023-01-16T08:05:43;10.32;;;3.95;;
18568;SDS011;14780;48.316;-1.050;2023-01-16T08:08:28;11.85;;;5.25;;
18568;SDS011;14780;48.316;-1.050;2023-01-16T08:11:13;14.02;;;8.82;;
18568;SDS011;14780;48.316;-1.050;2023-01-16T08:14:16;14.90;;;9.57;;
18568;SDS011;14780;48.316;-1.050;2023-01-16T08:17:01;18.10;;;9.77;;
18568;SDS011;14780;48.316;-1.050;2023-01-16T08:19:46;14.93;;;9.57;;
18568;SDS011;14780;48.316;-1.050;2023-01-16T08:22:30;14.45;;;8.70;;
18568;SDS011;14780;48.316;-1.050;2023-01-16T08:25:16;14.50;;;8.98;;
18568;SDS011;14780;48.316;-1.050;2023-01-16T08:28:03;12.35;;;7.70;;
18568;SDS011;14780;48.316;-1.050;2023-01-16T08:30:48;14.02;;;8.07;;
18568;SDS011;14780;48.316;-1.050;2023-01-16T08:33:34;13.40;;;7.90;;
18568;SDS011;14780;48.316;-1.050;2023-01-16T08:36:19;15.57;;;8.27;;
18568;SDS011;14780;48.316;-1.050;2023-01-16T08:39:04;11.43;;;7.50;;
18568;SDS011;14780;48.316;-1.050;2023-01-16T08:41:50;11.52;;;7.15;;
18568;SDS011;14780;48.316;-1.050;2023-01-16T08:44:53;15.88;;;6.90;;
18568;SDS011;14780;48.316;-1.050;2023-01-16T08:47:57;9.90;;;6.28;;
18568;SDS011;14780;48.316;-1.050;2023-01-16T08:51:02;10.88;;;6.00;;
18568;SDS011;14780;48.316;-1.050;2023-01-16T08:54:05;12.88;;;6.50;;
18568;SDS011;14780;48.316;-1.050;2023-01-16T08:56:50;11.05;;;6.13;;
18568;SDS011;14780;48.316;-1.050;2023-01-16T08:59:35;8.80;;;6.05;;
18568;SDS011;14780;48.316;-1.050;2023-01-16T09:02:19;10.88;;;6.05;;
18568;SDS011;14780;48.316;-1.050;2023-01-16T09:05:05;11.05;;;6.07;;
18568;SDS011;14780;48.316;-1.050;2023-01-16T09:07:50;9.70;;;5.43;;
18568;SDS011;14780;48.316;-1.050;2023-01-16T09:10:35;7.40;;;5.10;;
18568;SDS011;14780;48.316;-1.050;2023-01-16T09:13:20;8.30;;;4.90;;
18568;SDS011;14780;48.316;-1.050;2023-01-16T09:16:24;9.02;;;4.55;;
18568;SDS011;14780;48.316;-1.050;2023-01-16T09:19:09;9.55;;;4.82;;
18568;SDS011;14780;48.316;-1.050;2023-01-16T09:21:54;8.38;;;4.72;;
18568;SDS011;14780;48.316;-1.050;2023-01-16T09:24:39;8.43;;;4.82;;
18568;SDS011;14780;48.316;-1.050;2023-01-16T09:27:24;7.65;;;4.70;;
18568;SDS011;14780;48.316;-1.050;2023-01-16T09:30:09;7.15;;;4.30;;
18568;SDS011;14780;48.316;-1.050;2023-01-16T09:32:54;8.77;;;4.32;;
18568;SDS011;14780;48.316;-1.050;2023-01-16T09:35:38;8.52;;;4.35;;
18568;SDS011;14780;48.316;-1.050;2023-01-16T09:38:25;10.10;;;4.50;;
18568;SDS011;14780;48.316;-1.050;2023-01-16T09:41:13;7.05;;;4.18;;
18568;SDS011;14780;48.316;-1.050;2023-01-16T09:44:19;7.88;;;4.00;;
18568;SDS011;14780;48.316;-1.050;2023-01-16T09:47:05;6.55;;;3.88;;
18568;SDS011;14780;48.316;-1.050;2023-01-16T09:50:00;7.05;;;4.10;;
18568;SDS011;14780;48.316;-1.050;2023-01-16T09:52:55;6.53;;;3.72;;
18568;SDS011;14780;48.316;-1.050;2023-01-16T09:56:02;6.72;;;3.85;;
18568;SDS011;14780;48.316;-1.050;2023-01-16T10:02:26;7.10;;;3.45;;
18568;SDS011;14780;48.316;-1.050;2023-01-16T10:05:14;6.03;;;3.42;;
18568;SDS011;14780;48.316;-1.050;2023-01-16T10:08:07;5.57;;;3.20;;
18568;SDS011;14780;48.316;-1.050;2023-01-16T10:20:30;5.85;;;3.30;;
18568;SDS011;14780;48.316;-1.050;2023-01-16T10:26:45;5.97;;;3.05;;
18568;SDS011;14780;48.316;-1.050;2023-01-16T10:30:05;5.15;;;2.88;;
18568;SDS011;14780;48.316;-1.050;2023-01-16T10:35:55;6.45;;;3.13;;
18568;SDS011;14780;48.316;-1.050;2023-01-16T10:38:42;5.32;;;2.70;;
18568;SDS011;14780;48.316;-1.050;2023-01-16T10:41:33;5.35;;;2.80;;
18568;SDS011;14780;48.316;-1.050;2023-01-16T10:44:45;5.40;;;2.63;;
18568;SDS011;14780;48.316;-1.050;2023-01-16T10:47:58;5.85;;;2.65;;
18568;SDS011;14780;48.316;-1.050;2023-01-16T10:51:02;4.32;;;2.33;;
18568;SDS011;14780;48.316;-1.050;2023-01-16T10:53:48;4.30;;;2.67;;
18568;SDS011;14780;48.316;-1.050;2023-01-16T10:56:33;5.95;;;2.58;;
18568;SDS011;14780;48.316;-1.050;2023-01-16T10:59:21;4.20;;;2.40;;
18568;SDS011;14780;48.316;-1.050;2023-01-16T11:02:12;5.57;;;2.63;;
18568;SDS011;14780;48.316;-1.050;2023-01-16T11:08:18;6.03;;;2.33;;
18568;SDS011;14780;48.316;-1.050;2023-01-16T11:11:05;3.45;;;2.10;;
18568;SDS011;14780;48.316;-1.050;2023-01-16T11:14:31;6.15;;;2.70;;
18568;SDS011;14780;48.316;-1.050;2023-01-16T11:17:41;6.80;;;2.53;;
18568;SDS011;14780;48.316;-1.050;2023-01-16T11:20:54;6.95;;;2.72;;
18568;SDS011;14780;48.316;-1.050;2023-01-16T11:24:14;5.45;;;2.40;;
18568;SDS011;14780;48.316;-1.050;2023-01-16T11:27:05;5.20;;;2.20;;
18568;SDS011;14780;48.316;-1.050;2023-01-16T11:29:57;7.05;;;2.35;;
18568;SDS011;14780;48.316;-1.050;2023-01-16T11:32:46;4.22;;;2.33;;
18568;SDS011;14780;48.316;-1.050;2023-01-16T11:35:34;5.90;;;2.45;;
18568;SDS011;14780;48.316;-1.050;2023-01-16T11:38:20;6.15;;;2.53;;
18568;SDS011;14780;48.316;-1.050;2023-01-16T11:41:07;5.05;;;2.10;;
18568;SDS011;14780;48.316;-1.050;2023-01-16T11:44:35;3.67;;;1.90;;
18568;SDS011;14780;48.316;-1.050;2023-01-16T11:47:28;3.15;;;1.95;;
18568;SDS011;14780;48.316;-1.050;2023-01-16T11:50:34;3.95;;;2.05;;
18568;SDS011;14780;48.316;-1.050;2023-01-16T11:53:20;5.28;;;2.83;;
18568;SDS011;14780;48.316;-1.050;2023-01-16T11:56:08;6.93;;;3.40;;
18568;SDS011;14780;48.316;-1.050;2023-01-16T12:15:10;6.38;;;3.00;;
18568;SDS011;14780;48.316;-1.050;2023-01-16T12:21:24;9.50;;;4.13;;
18568;SDS011;14780;48.316;-1.050;2023-01-16T12:24:17;11.27;;;4.45;;
18568;SDS011;14780;48.316;-1.050;2023-01-16T12:33:49;9.88;;;5.38;;
18568;SDS011;14780;48.316;-1.050;2023-01-16T12:37:21;9.90;;;5.05;;
18568;SDS011;14780;48.316;-1.050;2023-01-16T12:40:33;9.98;;;5.15;;
18568;SDS011;14780;48.316;-1.050;2023-01-16T12:46:24;9.30;;;4.78;;
18568;SDS011;14780;48.316;-1.050;2023-01-16T12:49:41;8.07;;;4.30;;
18568;SDS011;14780;48.316;-1.050;2023-01-16T12:58:54;7.35;;;3.95;;
18568;SDS011;14780;48.316;-1.050;2023-01-16T13:01:49;7.40;;;3.90;;
18568;SDS011;14780;48.316;-1.050;2023-01-16T13:05:00;7.53;;;3.55;;
18568;SDS011;14780;48.316;-1.050;2023-01-16T13:10:54;8.32;;;3.80;;
18568;SDS011;14780;48.316;-1.050;2023-01-16T13:14:04;4.95;;;2.90;;
18568;SDS011;14780;48.316;-1.050;2023-01-16T13:19:46;6.55;;;3.45;;
18568;SDS011;14780;48.316;-1.050;2023-01-16T13:22:35;7.07;;;3.40;;
18568;SDS011;14780;48.316;-1.050;2023-01-16T13:25:36;6.35;;;3.40;;
18568;SDS011;14780;48.316;-1.050;2023-01-16T13:28:36;7.07;;;3.42;;
18568;SDS011;14780;48.316;-1.050;2023-01-16T13:31:39;7.18;;;3.33;;
18568;SDS011;14780;48.316;-1.050;2023-01-16T13:34:49;7.47;;;3.42;;
18568;SDS011;14780;48.316;-1.050;2023-01-16T13:44:06;5.20;;;2.72;;
18568;SDS011;14780;48.316;-1.050;2023-01-16T13:47:28;7.63;;;2.95;;
18568;SDS011;14780;48.316;-1.050;2023-01-16T13:53:09;5.68;;;2.50;;
18568;SDS011;14780;48.316;-1.050;2023-01-16T13:56:02;4.68;;;2.63;;
18568;SDS011;14780;48.316;-1.050;2023-01-16T13:58:58;5.30;;;2.80;;
18568;SDS011;14780;48.316;-1.050;2023-01-16T14:01:54;4.50;;;2.53;;
18568;SDS011;14780;48.316;-1.050;2023-01-16T14:04:40;6.28;;;2.70;;
18568;SDS011;14780;48.316;-1.050;2023-01-16T14:13:43;5.28;;;2.70;;
18568;SDS011;14780;48.316;-1.050;2023-01-16T14:16:33;5.00;;;2.30;;
18568;SDS011;14780;48.316;-1.050;2023-01-16T14:19:22;5.30;;;2.28;;
18568;SDS011;14780;48.316;-1.050;2023-01-16T14:22:11;4.80;;;2.38;;
18568;SDS011;14780;48.316;-1.050;2023-01-16T14:25:03;5.82;;;2.25;;
18568;SDS011;14780;48.316;-1.050;2023-01-16T14:27:51;4.47;;;2.38;;
18568;SDS011;14780;48.316;-1.050;2023-01-16T14:30:38;3.67;;;2.25;;
18568;SDS011;14780;48.316;-1.050;2023-01-16T14:33:23;3.08;;;1.90;;
18568;SDS011;14780;48.316;-1.050;2023-01-16T14:36:09;5.45;;;2.42;;
18568;SDS011;14780;48.316;-1.050;2023-01-16T14:38:57;4.88;;;2.20;;
18568;SDS011;14780;48.316;-1.050;2023-01-16T14:41:42;4.40;;;2.30;;
18568;SDS011;14780;48.316;-1.050;2023-01-16T14:48:13;3.95;;;2.20;;
18568;SDS011;14780;48.316;-1.050;2023-01-16T14:54:34;3.88;;;2.08;;
18568;SDS011;14780;48.316;-1.050;2023-01-16T14:57:38;3.13;;;2.00;;
18568;SDS011;14780;48.316;-1.050;2023-01-16T15:00:24;4.03;;;2.40;;
18568;SDS011;14780;48.316;-1.050;2023-01-16T15:03:12;4.68;;;2.20;;
18568;SDS011;14780;48.316;-1.050;2023-01-16T15:06:04;5.10;;;2.38;;
18568;SDS011;14780;48.316;-1.050;2023-01-16T15:08:49;3.10;;;2.00;;
18568;SDS011;14780;48.316;-1.050;2023-01-16T15:11:37;5.00;;;1.80;;
18568;SDS011;14780;48.316;-1.050;2023-01-16T15:14:31;4.10;;;2.08;;
18568;SDS011;14780;48.316;-1.050;2023-01-16T15:26:40;3.50;;;1.77;;
18568;SDS011;14780;48.316;-1.050;2023-01-16T15:29:41;3.67;;;2.00;;
18568;SDS011;14780;48.316;-1.050;2023-01-16T15:32:57;3.80;;;2.00;;
18568;SDS011;14780;48.316;-1.050;2023-01-16T15:36:09;3.50;;;1.80;;
18568;SDS011;14780;48.316;-1.050;2023-01-16T15:42:09;4.47;;;1.73;;
18568;SDS011;14780;48.316;-1.050;2023-01-16T15:45:19;5.25;;;2.00;;
18568;SDS011;14780;48.316;-1.050;2023-01-16T15:51:48;3.97;;;2.00;;
18568;SDS011;14780;48.316;-1.050;2023-01-16T15:54:37;3.30;;;1.75;;
18568;SDS011;14780;48.316;-1.050;2023-01-16T15:57:22;4.97;;;1.90;;
18568;SDS011;14780;48.316;-1.050;2023-01-16T16:00:20;3.10;;;1.75;;
18568;SDS011;14780;48.316;-1.050;2023-01-16T16:03:18;4.65;;;1.58;;
18568;SDS011;14780;48.316;-1.050;2023-01-16T16:06:11;4.05;;;1.98;;
18568;SDS011;14780;48.316;-1.050;2023-01-16T16:08:59;3.58;;;1.88;;
18568;SDS011;14780;48.316;-1.050;2023-01-16T16:11:46;4.05;;;1.80;;
18568;SDS011;14780;48.316;-1.050;2023-01-16T16:14:41;3.80;;;1.92;;
18568;SDS011;14780;48.316;-1.050;2023-01-16T16:17:45;4.07;;;1.95;;
18568;SDS011;14780;48.316;-1.050;2023-01-16T16:21:03;3.05;;;1.73;;
18568;SDS011;14780;48.316;-1.050;2023-01-16T16:23:59;3.40;;;2.00;;
18568;SDS011;14780;48.316;-1.050;2023-01-16T16:26:47;4.80;;;1.80;;
18568;SDS011;14780;48.316;-1.050;2023-01-16T16:29:32;3.13;;;1.80;;
18568;SDS011;14780;48.316;-1.050;2023-01-16T16:32:18;3.30;;;1.65;;
18568;SDS011;14780;48.316;-1.050;2023-01-16T16:35:04;5.18;;;1.83;;
18568;SDS011;14780;48.316;-1.050;2023-01-16T16:37:49;3.28;;;1.92;;
18568;SDS011;14780;48.316;-1.050;2023-01-16T16:40:34;3.75;;;1.92;;
18568;SDS011;14780;48.316;-1.050;2023-01-16T16:43:33;6.57;;;2.00;;
18568;SDS011;14780;48.316;-1.050;2023-01-16T16:46:30;7.55;;;2.25;;
18568;SDS011;14780;48.316;-1.050;2023-01-16T16:55:29;4.75;;;2.13;;
18568;SDS011;14780;48.316;-1.050;2023-01-16T16:58:23;6.55;;;2.22;;
18568;SDS011;14780;48.316;-1.050;2023-01-16T17:01:14;3.75;;;1.83;;
18568;SDS011;14780;48.316;-1.050;2023-01-16T17:04:01;4.47;;;2.22;;
18568;SDS011;14780;48.316;-1.050;2023-01-16T17:06:49;5.15;;;2.13;;
18568;SDS011;14780;48.316;-1.050;2023-01-16T17:09:35;6.95;;;2.22;;
18568;SDS011;14780;48.316;-1.050;2023-01-16T17:12:19;3.38;;;2.25;;
18568;SDS011;14780;48.316;-1.050;2023-01-16T17:15:05;6.38;;;2.50;;
18568;SDS011;14780;48.316;-1.050;2023-01-16T17:17:50;5.90;;;2.40;;
18568;SDS011;14780;48.316;-1.050;2023-01-16T17:20:40;5.55;;;2.30;;
18568;SDS011;14780;48.316;-1.050;2023-01-16T17:23:25;3.72;;;2.15;;
18568;SDS011;14780;48.316;-1.050;2023-01-16T17:26:11;5.68;;;2.42;;
18568;SDS011;14780;48.316;-1.050;2023-01-16T17:28:58;3.85;;;2.10;;
18568;SDS011;14780;48.316;-1.050;2023-01-16T17:31:43;5.32;;;2.08;;
18568;SDS011;14780;48.316;-1.050;2023-01-16T17:34:29;7.40;;;2.47;;
18568;SDS011;14780;48.316;-1.050;2023-01-16T17:37:16;3.17;;;2.00;;
18568;SDS011;14780;48.316;-1.050;2023-01-16T17:40:00;3.83;;;2.17;;
18568;SDS011;14780;48.316;-1.050;2023-01-16T17:42:45;3.35;;;2.03;;
18568;SDS011;14780;48.316;-1.050;2023-01-16T17:45:49;4.40;;;2.20;;
18568;SDS011;14780;48.316;-1.050;2023-01-16T17:48:35;5.38;;;2.42;;
18568;SDS011;14780;48.316;-1.050;2023-01-16T17:51:21;4.65;;;2.50;;
18568;SDS011;14780;48.316;-1.050;2023-01-16T17:54:07;5.15;;;2.50;;
18568;SDS011;14780;48.316;-1.050;2023-01-16T17:57:12;5.82;;;2.67;;
18568;SDS011;14780;48.316;-1.050;2023-01-16T17:59:57;4.57;;;2.40;;
18568;SDS011;14780;48.316;-1.050;2023-01-16T18:02:44;4.93;;;2.50;;
18568;SDS011;14780;48.316;-1.050;2023-01-16T18:05:31;4.57;;;2.65;;
18568;SDS011;14780;48.316;-1.050;2023-01-16T18:08:16;10.07;;;2.42;;
18568;SDS011;14780;48.316;-1.050;2023-01-16T18:11:02;5.63;;;2.47;;
18568;SDS011;14780;48.316;-1.050;2023-01-16T18:14:09;6.45;;;2.22;;
18568;SDS011;14780;48.316;-1.050;2023-01-16T18:17:14;5.45;;;2.58;;
18568;SDS011;14780;48.316;-1.050;2023-01-16T18:20:10;5.78;;;2.85;;
18568;SDS011;14780;48.316;-1.050;2023-01-16T18:22:58;7.10;;;3.05;;
18568;SDS011;14780;48.316;-1.050;2023-01-16T18:25:46;5.00;;;2.47;;
18568;SDS011;14780;48.316;-1.050;2023-01-16T18:28:32;6.40;;;3.20;;
18568;SDS011;14780;48.316;-1.050;2023-01-16T18:31:17;9.65;;;3.42;;
18568;SDS011;14780;48.316;-1.050;2023-01-16T18:34:03;6.07;;;3.38;;
18568;SDS011;14780;48.316;-1.050;2023-01-16T18:36:47;5.88;;;3.40;;
18568;SDS011;14780;48.316;-1.050;2023-01-16T18:39:32;6.68;;;3.47;;
18568;SDS011;14780;48.316;-1.050;2023-01-16T18:42:35;8.10;;;4.18;;
18568;SDS011;14780;48.316;-1.050;2023-01-16T18:45:46;9.45;;;4.13;;
18568;SDS011;14780;48.316;-1.050;2023-01-16T18:48:50;11.02;;;4.00;;
18568;SDS011;14780;48.316;-1.050;2023-01-16T18:51:53;11.20;;;4.55;;
18568;SDS011;14780;48.316;-1.050;2023-01-16T18:54:57;10.07;;;4.57;;
18568;SDS011;14780;48.316;-1.050;2023-01-16T18:58:01;6.55;;;4.00;;
18568;SDS011;14780;48.316;-1.050;2023-01-16T19:01:08;9.27;;;4.35;;
18568;SDS011;14780;48.316;-1.050;2023-01-16T19:04:15;7.18;;;4.43;;
18568;SDS011;14780;48.316;-1.050;2023-01-16T19:07:01;7.63;;;4.70;;
18568;SDS011;14780;48.316;-1.050;2023-01-16T19:09:59;9.07;;;4.38;;
18568;SDS011;14780;48.316;-1.050;2023-01-16T19:12:47;6.57;;;3.97;;
18568;SDS011;14780;48.316;-1.050;2023-01-16T19:15:33;8.07;;;4.30;;